sensor_id;sensor_type;location;lat;lon;timestamp;P1;durP1;ratioP1;P2;durP2;ratioP2
39540;SDS011;25219;52.244;21.006;2024-02-16T00:01:26;27.98;;;12.20;;
39540;SDS011;25219;52.244;21.006;2024-02-16T00:03:51;25.37;;;12.63;;
39540;SDS011;25219;52.244;21.006;2024-02-16T00:06:16;26.90;;;13.03;;
39540;SDS011;25219;52.244;21.006;2024-02-16T00:08:41;28.97;;;11.93;;
39540;SDS011;25219;52.244;21.006;2024-02-16T00:11:06;26.77;;;12.60;;
39540;SDS011;25219;52.244;21.006;2024-02-16T00:13:31;21.07;;;12.77;;
39540;SDS011;25219;52.244;21.006;2024-02-16T00:15:57;25.67;;;13.00;;
39540;SDS011;25219;52.244;21.006;2024-02-16T00:18:22;26.43;;;12.13;;
39540;SDS011;25219;52.244;21.006;2024-02-16T00:20:47;23.13;;;12.15;;
39540;SDS011;25219;52.244;21.006;2024-02-16T00:23:13;27.63;;;11.73;;
39540;SDS011;25219;52.244;21.006;2024-02-16T00:25:38;24.33;;;12.40;;
39540;SDS011;25219;52.244;21.006;2024-02-16T00:28:04;21.80;;;11.02;;
39540;SDS011;25219;52.244;21.006;2024-02-16T00:30:30;25.58;;;11.98;;
39540;SDS011;25219;52.244;21.006;2024-02-16T00:32:55;21.40;;;11.03;;
39540;SDS011;25219;52.244;21.006;2024-02-16T00:35:20;21.50;;;10.90;;
39540;SDS011;25219;52.244;21.006;2024-02-16T00:37:46;21.27;;;10.20;;
39540;SDS011;25219;52.244;21.006;2024-02-16T00:40:11;20.27;;;11.23;;
39540;SDS011;25219;52.244;21.006;2024-02-16T00:42:36;22.48;;;10.90;;
39540;SDS011;25219;52.244;21.006;2024-02-16T00:45:02;21.83;;;10.48;;
39540;SDS011;25219;52.244;21.006;2024-02-16T00:47:28;22.38;;;11.00;;
39540;SDS011;25219;52.244;21.006;2024-02-16T00:49:54;18.45;;;9.68;;
39540;SDS011;25219;52.244;21.006;2024-02-16T00:52:19;20.50;;;9.77;;
39540;SDS011;25219;52.244;21.006;2024-02-16T00:54:44;18.55;;;9.93;;
39540;SDS011;25219;52.244;21.006;2024-02-16T00:57:09;15.83;;;9.93;;
39540;SDS011;25219;52.244;21.006;2024-02-16T00:59:34;20.00;;;10.07;;
39540;SDS011;25219;52.244;21.006;2024-02-16T01:01:59;16.02;;;8.20;;
39540;SDS011;25219;52.244;21.006;2024-02-16T01:04:24;21.15;;;11.00;;
39540;SDS011;25219;52.244;21.006;2024-02-16T01:06:50;19.20;;;9.27;;
39540;SDS011;25219;52.244;21.006;2024-02-16T01:09:15;19.38;;;9.80;;
39540;SDS011;25219;52.244;21.006;2024-02-16T01:11:41;24.77;;;9.68;;
39540;SDS011;25219;52.244;21.006;2024-02-16T01:14:06;19.63;;;8.95;;
39540;SDS011;25219;52.244;21.006;2024-02-16T01:16:32;23.15;;;9.50;;
39540;SDS011;25219;52.244;21.006;2024-02-16T01:18:57;16.13;;;9.03;;
39540;SDS011;25219;52.244;21.006;2024-02-16T01:21:22;18.00;;;9.50;;
39540;SDS011;25219;52.244;21.006;2024-02-16T01:23:47;22.42;;;9.90;;
39540;SDS011;25219;52.244;21.006;2024-02-16T01:26:13;19.90;;;9.17;;
39540;SDS011;25219;52.244;21.006;2024-02-16T01:28:38;19.60;;;8.20;;
39540;SDS011;25219;52.244;21.006;2024-02-16T01:31:03;23.87;;;9.87;;
39540;SDS011;25219;52.244;21.006;2024-02-16T01:33:29;21.03;;;9.37;;
39540;SDS011;25219;52.244;21.006;2024-02-16T01:35:54;19.65;;;10.05;;
39540;SDS011;25219;52.244;21.006;2024-02-16T01:38:19;19.20;;;9.40;;
39540;SDS011;25219;52.244;21.006;2024-02-16T01:40:46;21.13;;;8.80;;
39540;SDS011;25219;52.244;21.006;2024-02-16T01:43:11;18.65;;;9.23;;
39540;SDS011;25219;52.244;21.006;2024-02-16T01:45:36;19.63;;;9.90;;
39540;SDS011;25219;52.244;21.006;2024-02-16T01:48:01;16.33;;;9.20;;
39540;SDS011;25219;52.244;21.006;2024-02-16T01:50:26;19.27;;;8.80;;
39540;SDS011;25219;52.244;21.006;2024-02-16T01:52:54;16.70;;;9.13;;
39540;SDS011;25219;52.244;21.006;2024-02-16T01:55:20;22.33;;;9.18;;
39540;SDS011;25219;52.244;21.006;2024-02-16T01:57:46;17.00;;;9.40;;
39540;SDS011;25219;52.244;21.006;2024-02-16T02:00:11;19.98;;;9.80;;
39540;SDS011;25219;52.244;21.006;2024-02-16T02:02:39;17.42;;;8.60;;
39540;SDS011;25219;52.244;21.006;2024-02-16T02:05:04;15.13;;;8.33;;
39540;SDS011;25219;52.244;21.006;2024-02-16T02:07:30;17.60;;;8.25;;
39540;SDS011;25219;52.244;21.006;2024-02-16T02:09:55;18.73;;;8.20;;
39540;SDS011;25219;52.244;21.006;2024-02-16T02:12:21;15.77;;;8.33;;
39540;SDS011;25219;52.244;21.006;2024-02-16T02:14:47;18.23;;;8.45;;
39540;SDS011;25219;52.244;21.006;2024-02-16T02:17:12;16.38;;;8.40;;
39540;SDS011;25219;52.244;21.006;2024-02-16T02:19:37;14.90;;;7.47;;
39540;SDS011;25219;52.244;21.006;2024-02-16T02:22:03;16.38;;;7.97;;
39540;SDS011;25219;52.244;21.006;2024-02-16T02:24:28;14.93;;;7.88;;
39540;SDS011;25219;52.244;21.006;2024-02-16T02:26:53;14.75;;;7.93;;
39540;SDS011;25219;52.244;21.006;2024-02-16T02:29:19;15.27;;;7.72;;
39540;SDS011;25219;52.244;21.006;2024-02-16T02:31:45;14.43;;;7.83;;
39540;SDS011;25219;52.244;21.006;2024-02-16T02:34:10;14.00;;;7.40;;
39540;SDS011;25219;52.244;21.006;2024-02-16T02:36:35;17.60;;;7.28;;
39540;SDS011;25219;52.244;21.006;2024-02-16T02:39:00;17.63;;;7.57;;
39540;SDS011;25219;52.244;21.006;2024-02-16T02:41:26;21.05;;;8.13;;
39540;SDS011;25219;52.244;21.006;2024-02-16T02:43:51;23.42;;;7.70;;
39540;SDS011;25219;52.244;21.006;2024-02-16T02:46:17;13.63;;;7.90;;
39540;SDS011;25219;52.244;21.006;2024-02-16T02:48:43;16.95;;;8.00;;
39540;SDS011;25219;52.244;21.006;2024-02-16T02:51:08;15.40;;;7.20;;
39540;SDS011;25219;52.244;21.006;2024-02-16T02:53:34;15.18;;;7.88;;
39540;SDS011;25219;52.244;21.006;2024-02-16T02:55:59;15.40;;;8.10;;
39540;SDS011;25219;52.244;21.006;2024-02-16T02:58:24;11.70;;;6.70;;
39540;SDS011;25219;52.244;21.006;2024-02-16T03:00:50;15.80;;;7.30;;
39540;SDS011;25219;52.244;21.006;2024-02-16T03:03:15;17.40;;;7.83;;
39540;SDS011;25219;52.244;21.006;2024-02-16T03:05:41;12.75;;;6.93;;
39540;SDS011;25219;52.244;21.006;2024-02-16T03:08:07;15.70;;;7.28;;
39540;SDS011;25219;52.244;21.006;2024-02-16T03:10:32;14.13;;;7.75;;
39540;SDS011;25219;52.244;21.006;2024-02-16T03:13:00;14.30;;;7.40;;
39540;SDS011;25219;52.244;21.006;2024-02-16T03:15:25;18.83;;;7.53;;
39540;SDS011;25219;52.244;21.006;2024-02-16T03:17:50;14.15;;;6.97;;
39540;SDS011;25219;52.244;21.006;2024-02-16T03:20:15;14.10;;;6.87;;
39540;SDS011;25219;52.244;21.006;2024-02-16T03:22:41;17.15;;;7.20;;
39540;SDS011;25219;52.244;21.006;2024-02-16T03:25:07;14.27;;;6.67;;
39540;SDS011;25219;52.244;21.006;2024-02-16T03:27:32;17.40;;;7.00;;
39540;SDS011;25219;52.244;21.006;2024-02-16T03:29:57;15.82;;;7.32;;
39540;SDS011;25219;52.244;21.006;2024-02-16T03:32:23;14.40;;;7.37;;
39540;SDS011;25219;52.244;21.006;2024-02-16T03:34:48;15.23;;;6.73;;
39540;SDS011;25219;52.244;21.006;2024-02-16T03:37:13;12.73;;;7.20;;
39540;SDS011;25219;52.244;21.006;2024-02-16T03:39:38;14.77;;;6.90;;
39540;SDS011;25219;52.244;21.006;2024-02-16T03:42:03;13.00;;;6.57;;
39540;SDS011;25219;52.244;21.006;2024-02-16T03:44:28;14.50;;;7.37;;
39540;SDS011;25219;52.244;21.006;2024-02-16T03:46:54;17.33;;;6.87;;
39540;SDS011;25219;52.244;21.006;2024-02-16T03:49:19;15.25;;;6.28;;
39540;SDS011;25219;52.244;21.006;2024-02-16T03:51:44;19.77;;;6.40;;
39540;SDS011;25219;52.244;21.006;2024-02-16T03:54:09;12.37;;;7.13;;
39540;SDS011;25219;52.244;21.006;2024-02-16T03:56:34;15.63;;;7.07;;
39540;SDS011;25219;52.244;21.006;2024-02-16T03:59:00;12.88;;;6.85;;
39540;SDS011;25219;52.244;21.006;2024-02-16T04:01:25;16.33;;;7.55;;
39540;SDS011;25219;52.244;21.006;2024-02-16T04:03:50;15.00;;;6.73;;
39540;SDS011;25219;52.244;21.006;2024-02-16T04:06:17;15.73;;;7.45;;
39540;SDS011;25219;52.244;21.006;2024-02-16T04:08:43;14.32;;;7.63;;
39540;SDS011;25219;52.244;21.006;2024-02-16T04:11:10;14.98;;;7.55;;
39540;SDS011;25219;52.244;21.006;2024-02-16T04:13:35;13.43;;;7.53;;
39540;SDS011;25219;52.244;21.006;2024-02-16T04:16:00;16.73;;;7.37;;
39540;SDS011;25219;52.244;21.006;2024-02-16T04:18:26;13.38;;;7.38;;
39540;SDS011;25219;52.244;21.006;2024-02-16T04:20:51;16.43;;;7.47;;
39540;SDS011;25219;52.244;21.006;2024-02-16T04:23:16;11.88;;;7.22;;
39540;SDS011;25219;52.244;21.006;2024-02-16T04:25:41;14.40;;;7.70;;
39540;SDS011;25219;52.244;21.006;2024-02-16T04:28:06;14.95;;;7.40;;
39540;SDS011;25219;52.244;21.006;2024-02-16T04:30:31;14.33;;;6.90;;
39540;SDS011;25219;52.244;21.006;2024-02-16T04:32:57;15.07;;;6.97;;
39540;SDS011;25219;52.244;21.006;2024-02-16T04:35:22;15.45;;;8.15;;
39540;SDS011;25219;52.244;21.006;2024-02-16T04:37:47;17.05;;;7.95;;
39540;SDS011;25219;52.244;21.006;2024-02-16T04:40:12;13.33;;;7.20;;
39540;SDS011;25219;52.244;21.006;2024-02-16T04:42:38;11.53;;;6.90;;
39540;SDS011;25219;52.244;21.006;2024-02-16T04:45:03;17.15;;;8.27;;
39540;SDS011;25219;52.244;21.006;2024-02-16T04:47:29;15.25;;;7.53;;
39540;SDS011;25219;52.244;21.006;2024-02-16T04:49:54;14.30;;;7.57;;
39540;SDS011;25219;52.244;21.006;2024-02-16T04:52:19;16.98;;;6.75;;
39540;SDS011;25219;52.244;21.006;2024-02-16T04:54:44;14.93;;;8.23;;
39540;SDS011;25219;52.244;21.006;2024-02-16T04:57:09;15.43;;;7.87;;
39540;SDS011;25219;52.244;21.006;2024-02-16T04:59:34;14.38;;;7.63;;
39540;SDS011;25219;52.244;21.006;2024-02-16T05:01:59;17.73;;;7.75;;
39540;SDS011;25219;52.244;21.006;2024-02-16T05:04:25;22.92;;;8.80;;
39540;SDS011;25219;52.244;21.006;2024-02-16T05:06:50;14.63;;;7.65;;
39540;SDS011;25219;52.244;21.006;2024-02-16T05:09:17;15.88;;;8.25;;
39540;SDS011;25219;52.244;21.006;2024-02-16T05:11:42;14.77;;;7.60;;
39540;SDS011;25219;52.244;21.006;2024-02-16T05:14:08;18.67;;;8.02;;
39540;SDS011;25219;52.244;21.006;2024-02-16T05:16:33;16.95;;;7.47;;
39540;SDS011;25219;52.244;21.006;2024-02-16T05:18:58;17.48;;;8.18;;
39540;SDS011;25219;52.244;21.006;2024-02-16T05:21:23;12.97;;;7.17;;
39540;SDS011;25219;52.244;21.006;2024-02-16T05:23:49;18.20;;;7.90;;
39540;SDS011;25219;52.244;21.006;2024-02-16T05:26:14;15.20;;;7.30;;
39540;SDS011;25219;52.244;21.006;2024-02-16T05:28:39;15.50;;;7.68;;
39540;SDS011;25219;52.244;21.006;2024-02-16T05:31:14;17.23;;;7.73;;
39540;SDS011;25219;52.244;21.006;2024-02-16T05:33:40;15.10;;;7.68;;
39540;SDS011;25219;52.244;21.006;2024-02-16T05:36:06;18.13;;;7.97;;
39540;SDS011;25219;52.244;21.006;2024-02-16T05:38:31;17.77;;;8.05;;
39540;SDS011;25219;52.244;21.006;2024-02-16T05:41:00;16.80;;;7.57;;
39540;SDS011;25219;52.244;21.006;2024-02-16T05:43:25;14.38;;;7.88;;
39540;SDS011;25219;52.244;21.006;2024-02-16T05:45:50;18.60;;;7.30;;
39540;SDS011;25219;52.244;21.006;2024-02-16T05:48:16;16.47;;;7.73;;
39540;SDS011;25219;52.244;21.006;2024-02-16T05:50:41;19.00;;;8.33;;
39540;SDS011;25219;52.244;21.006;2024-02-16T05:53:06;18.80;;;8.37;;
39540;SDS011;25219;52.244;21.006;2024-02-16T05:55:31;17.80;;;8.05;;
39540;SDS011;25219;52.244;21.006;2024-02-16T05:57:57;18.08;;;7.93;;
39540;SDS011;25219;52.244;21.006;2024-02-16T06:00:22;21.87;;;8.67;;
39540;SDS011;25219;52.244;21.006;2024-02-16T06:02:47;19.25;;;8.00;;
39540;SDS011;25219;52.244;21.006;2024-02-16T06:05:12;18.53;;;8.57;;
39540;SDS011;25219;52.244;21.006;2024-02-16T06:07:37;20.70;;;8.60;;
39540;SDS011;25219;52.244;21.006;2024-02-16T06:10:03;16.42;;;8.00;;
39540;SDS011;25219;52.244;21.006;2024-02-16T06:12:30;21.27;;;9.15;;
39540;SDS011;25219;52.244;21.006;2024-02-16T06:14:56;19.13;;;8.53;;
39540;SDS011;25219;52.244;21.006;2024-02-16T06:17:22;16.20;;;8.48;;
39540;SDS011;25219;52.244;21.006;2024-02-16T06:19:47;16.33;;;7.45;;
39540;SDS011;25219;52.244;21.006;2024-02-16T06:22:13;21.15;;;8.68;;
39540;SDS011;25219;52.244;21.006;2024-02-16T06:24:38;16.40;;;8.05;;
39540;SDS011;25219;52.244;21.006;2024-02-16T06:27:03;19.13;;;8.40;;
39540;SDS011;25219;52.244;21.006;2024-02-16T06:29:29;26.45;;;8.10;;
39540;SDS011;25219;52.244;21.006;2024-02-16T06:31:55;15.90;;;8.50;;
39540;SDS011;25219;52.244;21.006;2024-02-16T06:34:20;17.48;;;8.70;;
39540;SDS011;25219;52.244;21.006;2024-02-16T06:36:45;21.67;;;8.93;;
39540;SDS011;25219;52.244;21.006;2024-02-16T06:39:11;20.37;;;9.63;;
39540;SDS011;25219;52.244;21.006;2024-02-16T06:41:36;19.42;;;8.80;;
39540;SDS011;25219;52.244;21.006;2024-02-16T06:44:02;23.42;;;9.40;;
39540;SDS011;25219;52.244;21.006;2024-02-16T06:46:28;19.42;;;9.35;;
39540;SDS011;25219;52.244;21.006;2024-02-16T06:48:54;18.67;;;8.93;;
39540;SDS011;25219;52.244;21.006;2024-02-16T06:51:21;22.27;;;10.05;;
39540;SDS011;25219;52.244;21.006;2024-02-16T06:53:47;18.45;;;9.10;;
39540;SDS011;25219;52.244;21.006;2024-02-16T06:56:12;14.90;;;9.13;;
39540;SDS011;25219;52.244;21.006;2024-02-16T06:58:37;19.17;;;8.73;;
39540;SDS011;25219;52.244;21.006;2024-02-16T07:01:03;22.07;;;10.20;;
39540;SDS011;25219;52.244;21.006;2024-02-16T07:03:28;20.02;;;9.43;;
39540;SDS011;25219;52.244;21.006;2024-02-16T07:05:54;23.30;;;9.32;;
39540;SDS011;25219;52.244;21.006;2024-02-16T07:08:19;21.52;;;9.65;;
39540;SDS011;25219;52.244;21.006;2024-02-16T07:10:44;20.42;;;9.55;;
39540;SDS011;25219;52.244;21.006;2024-02-16T07:13:11;25.17;;;10.30;;
39540;SDS011;25219;52.244;21.006;2024-02-16T07:15:36;20.23;;;10.00;;
39540;SDS011;25219;52.244;21.006;2024-02-16T07:18:02;21.73;;;9.27;;
39540;SDS011;25219;52.244;21.006;2024-02-16T07:20:29;21.73;;;9.88;;
39540;SDS011;25219;52.244;21.006;2024-02-16T07:22:54;21.73;;;10.27;;
39540;SDS011;25219;52.244;21.006;2024-02-16T07:25:19;18.95;;;9.90;;
39540;SDS011;25219;52.244;21.006;2024-02-16T07:27:44;24.05;;;9.85;;
39540;SDS011;25219;52.244;21.006;2024-02-16T07:30:09;22.52;;;10.02;;
39540;SDS011;25219;52.244;21.006;2024-02-16T07:32:38;18.35;;;9.75;;
39540;SDS011;25219;52.244;21.006;2024-02-16T07:35:03;24.07;;;9.50;;
39540;SDS011;25219;52.244;21.006;2024-02-16T07:37:29;21.10;;;9.70;;
39540;SDS011;25219;52.244;21.006;2024-02-16T07:39:55;19.17;;;9.65;;
39540;SDS011;25219;52.244;21.006;2024-02-16T07:42:20;18.10;;;9.37;;
39540;SDS011;25219;52.244;21.006;2024-02-16T07:44:45;25.55;;;10.40;;
39540;SDS011;25219;52.244;21.006;2024-02-16T07:47:10;19.17;;;9.70;;
39540;SDS011;25219;52.244;21.006;2024-02-16T07:49:37;30.02;;;10.70;;
39540;SDS011;25219;52.244;21.006;2024-02-16T07:52:03;22.45;;;10.25;;
39540;SDS011;25219;52.244;21.006;2024-02-16T07:54:28;21.67;;;9.90;;
39540;SDS011;25219;52.244;21.006;2024-02-16T07:56:54;23.67;;;10.80;;
39540;SDS011;25219;52.244;21.006;2024-02-16T07:59:19;22.23;;;9.77;;
39540;SDS011;25219;52.244;21.006;2024-02-16T08:01:44;23.70;;;9.20;;
39540;SDS011;25219;52.244;21.006;2024-02-16T08:04:10;16.98;;;9.13;;
39540;SDS011;25219;52.244;21.006;2024-02-16T08:06:35;20.53;;;10.00;;
39540;SDS011;25219;52.244;21.006;2024-02-16T08:09:00;15.57;;;9.52;;
39540;SDS011;25219;52.244;21.006;2024-02-16T08:11:26;44.75;;;12.60;;
39540;SDS011;25219;52.244;21.006;2024-02-16T08:13:52;20.42;;;10.90;;
39540;SDS011;25219;52.244;21.006;2024-02-16T08:16:17;17.50;;;9.47;;
39540;SDS011;25219;52.244;21.006;2024-02-16T08:18:43;24.73;;;10.18;;
39540;SDS011;25219;52.244;21.006;2024-02-16T08:21:08;34.05;;;13.23;;
39540;SDS011;25219;52.244;21.006;2024-02-16T08:23:35;21.80;;;9.95;;
39540;SDS011;25219;52.244;21.006;2024-02-16T08:26:00;20.33;;;8.73;;
39540;SDS011;25219;52.244;21.006;2024-02-16T08:28:25;24.80;;;9.60;;
39540;SDS011;25219;52.244;21.006;2024-02-16T08:30:50;19.57;;;9.90;;
39540;SDS011;25219;52.244;21.006;2024-02-16T08:33:16;31.77;;;10.27;;
39540;SDS011;25219;52.244;21.006;2024-02-16T08:35:41;21.85;;;9.65;;
39540;SDS011;25219;52.244;21.006;2024-02-16T08:38:06;19.83;;;9.03;;
39540;SDS011;25219;52.244;21.006;2024-02-16T08:40:35;19.95;;;9.30;;
39540;SDS011;25219;52.244;21.006;2024-02-16T08:43:01;15.02;;;8.00;;
39540;SDS011;25219;52.244;21.006;2024-02-16T08:45:28;20.45;;;9.35;;
39540;SDS011;25219;52.244;21.006;2024-02-16T08:47:53;21.50;;;9.50;;
39540;SDS011;25219;52.244;21.006;2024-02-16T08:50:19;21.13;;;9.45;;
39540;SDS011;25219;52.244;21.006;2024-02-16T08:52:44;21.37;;;9.70;;
39540;SDS011;25219;52.244;21.006;2024-02-16T08:55:09;18.27;;;8.90;;
39540;SDS011;25219;52.244;21.006;2024-02-16T08:57:35;18.77;;;9.23;;
39540;SDS011;25219;52.244;21.006;2024-02-16T09:00:00;24.73;;;8.90;;
39540;SDS011;25219;52.244;21.006;2024-02-16T09:02:25;21.73;;;8.83;;
39540;SDS011;25219;52.244;21.006;2024-02-16T09:04:50;18.43;;;9.27;;
39540;SDS011;25219;52.244;21.006;2024-02-16T09:07:15;22.83;;;9.23;;
39540;SDS011;25219;52.244;21.006;2024-02-16T09:09:40;24.27;;;9.07;;
39540;SDS011;25219;52.244;21.006;2024-02-16T09:12:06;25.85;;;9.65;;
39540;SDS011;25219;52.244;21.006;2024-02-16T09:14:31;22.53;;;9.30;;
39540;SDS011;25219;52.244;21.006;2024-02-16T09:16:57;23.98;;;10.23;;
39540;SDS011;25219;52.244;21.006;2024-02-16T09:19:22;25.58;;;9.30;;
39540;SDS011;25219;52.244;21.006;2024-02-16T09:21:48;20.50;;;9.63;;
39540;SDS011;25219;52.244;21.006;2024-02-16T09:24:13;21.83;;;10.35;;
39540;SDS011;25219;52.244;21.006;2024-02-16T09:26:43;21.48;;;10.20;;
39540;SDS011;25219;52.244;21.006;2024-02-16T09:29:08;20.48;;;9.20;;
39540;SDS011;25219;52.244;21.006;2024-02-16T09:31:33;20.75;;;10.10;;
39540;SDS011;25219;52.244;21.006;2024-02-16T09:33:58;22.13;;;9.47;;
39540;SDS011;25219;52.244;21.006;2024-02-16T09:36:23;19.07;;;9.63;;
39540;SDS011;25219;52.244;21.006;2024-02-16T09:38:48;19.47;;;9.43;;
39540;SDS011;25219;52.244;21.006;2024-02-16T09:41:14;16.73;;;8.88;;
39540;SDS011;25219;52.244;21.006;2024-02-16T09:43:41;20.25;;;9.50;;
39540;SDS011;25219;52.244;21.006;2024-02-16T09:46:06;18.65;;;9.65;;
39540;SDS011;25219;52.244;21.006;2024-02-16T09:48:33;20.40;;;8.95;;
39540;SDS011;25219;52.244;21.006;2024-02-16T09:50:58;17.10;;;9.07;;
39540;SDS011;25219;52.244;21.006;2024-02-16T09:53:27;22.85;;;10.93;;
39540;SDS011;25219;52.244;21.006;2024-02-16T09:55:55;19.80;;;9.10;;
39540;SDS011;25219;52.244;21.006;2024-02-16T09:58:20;18.73;;;8.43;;
39540;SDS011;25219;52.244;21.006;2024-02-16T10:00:52;18.35;;;9.98;;
39540;SDS011;25219;52.244;21.006;2024-02-16T10:03:21;23.33;;;9.93;;
39540;SDS011;25219;52.244;21.006;2024-02-16T10:05:46;17.85;;;8.55;;
39540;SDS011;25219;52.244;21.006;2024-02-16T10:08:12;20.90;;;9.57;;
39540;SDS011;25219;52.244;21.006;2024-02-16T10:10:37;19.13;;;9.23;;
39540;SDS011;25219;52.244;21.006;2024-02-16T10:13:05;21.07;;;10.00;;
39540;SDS011;25219;52.244;21.006;2024-02-16T10:15:34;18.23;;;9.05;;
39540;SDS011;25219;52.244;21.006;2024-02-16T10:18:00;20.60;;;9.52;;
39540;SDS011;25219;52.244;21.006;2024-02-16T10:20:25;15.88;;;8.90;;
39540;SDS011;25219;52.244;21.006;2024-02-16T10:23:01;17.45;;;8.73;;
39540;SDS011;25219;52.244;21.006;2024-02-16T10:25:27;23.77;;;9.13;;
39540;SDS011;25219;52.244;21.006;2024-02-16T10:27:53;20.60;;;9.30;;
39540;SDS011;25219;52.244;21.006;2024-02-16T10:30:20;16.80;;;8.70;;
39540;SDS011;25219;52.244;21.006;2024-02-16T10:32:46;20.60;;;8.65;;
39540;SDS011;25219;52.244;21.006;2024-02-16T10:35:11;17.60;;;8.67;;
39540;SDS011;25219;52.244;21.006;2024-02-16T10:37:38;17.95;;;8.43;;
39540;SDS011;25219;52.244;21.006;2024-02-16T10:40:05;21.08;;;9.60;;
39540;SDS011;25219;52.244;21.006;2024-02-16T10:42:31;28.23;;;8.73;;
39540;SDS011;25219;52.244;21.006;2024-02-16T10:44:58;20.63;;;8.77;;
39540;SDS011;25219;52.244;21.006;2024-02-16T10:47:24;22.77;;;9.00;;
39540;SDS011;25219;52.244;21.006;2024-02-16T10:49:49;16.85;;;8.43;;
39540;SDS011;25219;52.244;21.006;2024-02-16T10:52:14;18.40;;;9.00;;
39540;SDS011;25219;52.244;21.006;2024-02-16T10:54:40;14.10;;;7.57;;
39540;SDS011;25219;52.244;21.006;2024-02-16T10:57:10;17.45;;;8.93;;
39540;SDS011;25219;52.244;21.006;2024-02-16T10:59:41;16.98;;;8.68;;
39540;SDS011;25219;52.244;21.006;2024-02-16T11:02:08;15.32;;;8.70;;
39540;SDS011;25219;52.244;21.006;2024-02-16T11:04:38;18.88;;;9.13;;
39540;SDS011;25219;52.244;21.006;2024-02-16T11:07:15;20.92;;;11.48;;
39540;SDS011;25219;52.244;21.006;2024-02-16T11:09:40;21.65;;;9.10;;
39540;SDS011;25219;52.244;21.006;2024-02-16T11:12:06;18.63;;;9.13;;
39540;SDS011;25219;52.244;21.006;2024-02-16T11:14:39;17.90;;;9.60;;
39540;SDS011;25219;52.244;21.006;2024-02-16T11:17:14;20.15;;;8.98;;
39540;SDS011;25219;52.244;21.006;2024-02-16T11:19:41;19.65;;;9.15;;
39540;SDS011;25219;52.244;21.006;2024-02-16T11:22:06;16.02;;;8.88;;
39540;SDS011;25219;52.244;21.006;2024-02-16T11:24:36;21.67;;;9.25;;
39540;SDS011;25219;52.244;21.006;2024-02-16T11:27:04;18.40;;;9.60;;
39540;SDS011;25219;52.244;21.006;2024-02-16T11:29:33;18.65;;;10.23;;
39540;SDS011;25219;52.244;21.006;2024-02-16T11:31:59;20.75;;;9.40;;
39540;SDS011;25219;52.244;21.006;2024-02-16T11:34:25;14.85;;;9.13;;
39540;SDS011;25219;52.244;21.006;2024-02-16T11:36:54;17.70;;;9.77;;
39540;SDS011;25219;52.244;21.006;2024-02-16T11:39:20;19.80;;;9.68;;
39540;SDS011;25219;52.244;21.006;2024-02-16T11:41:45;17.20;;;9.35;;
39540;SDS011;25219;52.244;21.006;2024-02-16T11:44:12;21.20;;;9.20;;
39540;SDS011;25219;52.244;21.006;2024-02-16T11:46:38;21.73;;;9.00;;
39540;SDS011;25219;52.244;21.006;2024-02-16T11:49:06;19.58;;;9.13;;
39540;SDS011;25219;52.244;21.006;2024-02-16T11:51:32;23.40;;;9.38;;
39540;SDS011;25219;52.244;21.006;2024-02-16T11:53:57;23.10;;;9.35;;
39540;SDS011;25219;52.244;21.006;2024-02-16T11:56:23;20.60;;;10.05;;
39540;SDS011;25219;52.244;21.006;2024-02-16T11:58:49;24.92;;;9.90;;
39540;SDS011;25219;52.244;21.006;2024-02-16T12:01:14;19.70;;;9.27;;
39540;SDS011;25219;52.244;21.006;2024-02-16T12:03:40;21.05;;;9.23;;
39540;SDS011;25219;52.244;21.006;2024-02-16T12:06:06;18.50;;;9.43;;
39540;SDS011;25219;52.244;21.006;2024-02-16T12:08:31;18.27;;;8.77;;
39540;SDS011;25219;52.244;21.006;2024-02-16T12:10:57;20.90;;;9.73;;
39540;SDS011;25219;52.244;21.006;2024-02-16T12:13:22;17.30;;;10.70;;
39540;SDS011;25219;52.244;21.006;2024-02-16T12:15:48;18.48;;;9.98;;
39540;SDS011;25219;52.244;21.006;2024-02-16T12:18:18;18.70;;;9.07;;
39540;SDS011;25219;52.244;21.006;2024-02-16T12:20:44;17.05;;;8.80;;
39540;SDS011;25219;52.244;21.006;2024-02-16T12:23:13;23.73;;;9.52;;
39540;SDS011;25219;52.244;21.006;2024-02-16T12:25:38;19.05;;;9.20;;
39540;SDS011;25219;52.244;21.006;2024-02-16T12:28:04;19.97;;;9.20;;
39540;SDS011;25219;52.244;21.006;2024-02-16T12:30:30;15.93;;;9.10;;
39540;SDS011;25219;52.244;21.006;2024-02-16T12:32:55;18.67;;;9.73;;
39540;SDS011;25219;52.244;21.006;2024-02-16T12:35:20;19.63;;;8.23;;
39540;SDS011;25219;52.244;21.006;2024-02-16T12:37:45;20.55;;;9.77;;
39540;SDS011;25219;52.244;21.006;2024-02-16T12:40:11;20.47;;;8.73;;
39540;SDS011;25219;52.244;21.006;2024-02-16T12:42:36;18.87;;;8.77;;
39540;SDS011;25219;52.244;21.006;2024-02-16T12:45:01;17.40;;;8.80;;
39540;SDS011;25219;52.244;21.006;2024-02-16T12:47:26;17.63;;;8.47;;
39540;SDS011;25219;52.244;21.006;2024-02-16T12:49:51;16.10;;;9.00;;
39540;SDS011;25219;52.244;21.006;2024-02-16T12:52:20;16.75;;;9.77;;
39540;SDS011;25219;52.244;21.006;2024-02-16T12:54:48;17.35;;;8.77;;
39540;SDS011;25219;52.244;21.006;2024-02-16T12:57:13;14.57;;;8.07;;
39540;SDS011;25219;52.244;21.006;2024-02-16T12:59:38;18.10;;;8.83;;
39540;SDS011;25219;52.244;21.006;2024-02-16T13:02:04;17.73;;;8.87;;
39540;SDS011;25219;52.244;21.006;2024-02-16T13:04:29;17.67;;;9.52;;
39540;SDS011;25219;52.244;21.006;2024-02-16T13:06:56;19.05;;;9.38;;
39540;SDS011;25219;52.244;21.006;2024-02-16T13:09:21;21.23;;;9.90;;
39540;SDS011;25219;52.244;21.006;2024-02-16T13:11:46;16.05;;;8.50;;
39540;SDS011;25219;52.244;21.006;2024-02-16T13:14:19;16.92;;;8.60;;
39540;SDS011;25219;52.244;21.006;2024-02-16T13:16:44;16.90;;;9.00;;
39540;SDS011;25219;52.244;21.006;2024-02-16T13:19:09;17.90;;;9.57;;
39540;SDS011;25219;52.244;21.006;2024-02-16T13:21:34;24.95;;;9.13;;
39540;SDS011;25219;52.244;21.006;2024-02-16T13:23:59;19.37;;;10.43;;
39540;SDS011;25219;52.244;21.006;2024-02-16T13:26:24;21.20;;;10.27;;
39540;SDS011;25219;52.244;21.006;2024-02-16T13:28:49;19.33;;;9.40;;
39540;SDS011;25219;52.244;21.006;2024-02-16T13:31:15;20.83;;;9.00;;
39540;SDS011;25219;52.244;21.006;2024-02-16T13:33:40;17.67;;;9.47;;
39540;SDS011;25219;52.244;21.006;2024-02-16T13:36:06;16.83;;;9.27;;
39540;SDS011;25219;52.244;21.006;2024-02-16T13:38:31;19.95;;;8.00;;
39540;SDS011;25219;52.244;21.006;2024-02-16T13:40:56;16.83;;;9.20;;
39540;SDS011;25219;52.244;21.006;2024-02-16T13:43:21;19.50;;;9.73;;
39540;SDS011;25219;52.244;21.006;2024-02-16T13:45:53;17.80;;;9.40;;
39540;SDS011;25219;52.244;21.006;2024-02-16T13:48:19;18.83;;;9.80;;
39540;SDS011;25219;52.244;21.006;2024-02-16T13:50:45;18.33;;;9.05;;
39540;SDS011;25219;52.244;21.006;2024-02-16T13:53:11;23.45;;;9.23;;
39540;SDS011;25219;52.244;21.006;2024-02-16T13:55:36;17.17;;;9.27;;
39540;SDS011;25219;52.244;21.006;2024-02-16T13:58:01;28.23;;;10.27;;
39540;SDS011;25219;52.244;21.006;2024-02-16T14:00:26;15.80;;;8.90;;
39540;SDS011;25219;52.244;21.006;2024-02-16T14:02:51;17.70;;;9.27;;
39540;SDS011;25219;52.244;21.006;2024-02-16T14:05:17;18.97;;;9.50;;
39540;SDS011;25219;52.244;21.006;2024-02-16T14:07:42;19.33;;;8.83;;
39540;SDS011;25219;52.244;21.006;2024-02-16T14:10:07;14.43;;;7.30;;